sensor_id;sensor_type;location;lat;lon;timestamp;temperature;humidity
10155;DHT22;5118;48.570;7.916;2022-12-07T00:02:04;5.00;99.90
10155;DHT22;5118;48.570;7.916;2022-12-07T00:04:32;5.00;99.90
10155;DHT22;5118;48.570;7.916;2022-12-07T00:07:01;5.00;99.90
10155;DHT22;5118;48.570;7.916;2022-12-07T00:09:29;5.00;99.90
10155;DHT22;5118;48.570;7.916;2022-12-07T00:11:58;5.00;99.90
10155;DHT22;5118;48.570;7.916;2022-12-07T00:14:26;5.00;99.90
10155;DHT22;5118;48.570;7.916;2022-12-07T00:16:56;5.00;99.90
10155;DHT22;5118;48.570;7.916;2022-12-07T00:19:25;5.00;99.90
10155;DHT22;5118;48.570;7.916;2022-12-07T00:21:53;4.90;99.90
10155;DHT22;5118;48.570;7.916;2022-12-07T00:24:21;4.90;99.90
10155;DHT22;5118;48.570;7.916;2022-12-07T00:26:49;4.90;99.90
10155;DHT22;5118;48.570;7.916;2022-12-07T00:29:20;4.80;99.90
10155;DHT22;5118;48.570;7.916;2022-12-07T00:31:50;4.80;99.90
10155;DHT22;5118;48.570;7.916;2022-12-07T00:34:21;4.80;99.90
10155;DHT22;5118;48.570;7.916;2022-12-07T00:36:50;4.80;99.90
10155;DHT22;5118;48.570;7.916;2022-12-07T00:39:18;4.70;99.90
10155;DHT22;5118;48.570;7.916;2022-12-07T00:41:46;4.70;99.90
10155;DHT22;5118;48.570;7.916;2022-12-07T00:44:15;4.70;99.90
10155;DHT22;5118;48.570;7.916;2022-12-07T00:46:43;4.70;99.90
10155;DHT22;5118;48.570;7.916;2022-12-07T00:49:13;4.80;99.90
10155;DHT22;5118;48.570;7.916;2022-12-07T00:51:43;4.70;99.90
10155;DHT22;5118;48.570;7.916;2022-12-07T00:54:11;4.70;99.90
10155;DHT22;5118;48.570;7.916;2022-12-07T00:56:39;4.70;99.90
10155;DHT22;5118;48.570;7.916;2022-12-07T00:59:11;4.70;99.90
10155;DHT22;5118;48.570;7.916;2022-12-07T01:01:40;4.70;99.90
10155;DHT22;5118;48.570;7.916;2022-12-07T01:04:09;4.70;99.90
10155;DHT22;5118;48.570;7.916;2022-12-07T01:06:40;4.70;99.90
10155;DHT22;5118;48.570;7.916;2022-12-07T01:09:10;4.70;99.90
10155;DHT22;5118;48.570;7.916;2022-12-07T01:11:38;4.70;99.90
10155;DHT22;5118;48.570;7.916;2022-12-07T01:14:07;4.70;99.90
10155;DHT22;5118;48.570;7.916;2022-12-07T01:16:38;4.70;99.90
10155;DHT22;5118;48.570;7.916;2022-12-07T01:19:07;4.70;99.90
10155;DHT22;5118;48.570;7.916;2022-12-07T01:21:35;4.60;99.90
10155;DHT22;5118;48.570;7.916;2022-12-07T01:24:06;4.70;99.90
10155;DHT22;5118;48.570;7.916;2022-12-07T01:26:39;4.60;99.90
10155;DHT22;5118;48.570;7.916;2022-12-07T01:29:08;4.70;99.90
10155;DHT22;5118;48.570;7.916;2022-12-07T01:31:36;4.70;99.90
10155;DHT22;5118;48.570;7.916;2022-12-07T01:34:05;4.70;99.90
10155;DHT22;5118;48.570;7.916;2022-12-07T01:36:35;4.70;99.90
10155;DHT22;5118;48.570;7.916;2022-12-07T01:39:05;4.70;99.90
10155;DHT22;5118;48.570;7.916;2022-12-07T01:41:37;4.70;99.90
10155;DHT22;5118;48.570;7.916;2022-12-07T01:44:12;4.70;99.90
10155;DHT22;5118;48.570;7.916;2022-12-07T01:46:44;4.70;99.90
10155;DHT22;5118;48.570;7.916;2022-12-07T01:49:17;4.70;99.90
10155;DHT22;5118;48.570;7.916;2022-12-07T01:51:48;4.70;99.90
10155;DHT22;5118;48.570;7.916;2022-12-07T01:54:17;4.70;99.90
10155;DHT22;5118;48.570;7.916;2022-12-07T01:56:50;4.70;99.90
10155;DHT22;5118;48.570;7.916;2022-12-07T01:59:23;4.70;99.90
10155;DHT22;5118;48.570;7.916;2022-12-07T02:01:54;4.70;99.90
10155;DHT22;5118;48.570;7.916;2022-12-07T02:04:23;4.70;99.90
10155;DHT22;5118;48.570;7.916;2022-12-07T02:06:51;4.70;99.90
10155;DHT22;5118;48.570;7.916;2022-12-07T02:09:20;4.70;99.90
10155;DHT22;5118;48.570;7.916;2022-12-07T02:11:49;4.70;99.90
10155;DHT22;5118;48.570;7.916;2022-12-07T02:14:18;4.70;99.90
10155;DHT22;5118;48.570;7.916;2022-12-07T02:16:56;4.70;99.90
10155;DHT22;5118;48.570;7.916;2022-12-07T02:22:55;4.60;99.90
10155;DHT22;5118;48.570;7.916;2022-12-07T02:25:37;4.60;99.90
10155;DHT22;5118;48.570;7.916;2022-12-07T02:28:14;4.50;99.90
10155;DHT22;5118;48.570;7.916;2022-12-07T02:30:48;4.50;99.90
10155;DHT22;5118;48.570;7.916;2022-12-07T02:33:21;4.50;99.90
10155;DHT22;5118;48.570;7.916;2022-12-07T02:35:57;4.50;99.90
10155;DHT22;5118;48.570;7.916;2022-12-07T02:38:31;4.50;99.90
10155;DHT22;5118;48.570;7.916;2022-12-07T02:41:07;4.40;99.90
10155;DHT22;5118;48.570;7.916;2022-12-07T02:43:39;4.40;99.90
10155;DHT22;5118;48.570;7.916;2022-12-07T02:46:13;4.40;99.90
10155;DHT22;5118;48.570;7.916;2022-12-07T02:48:43;4.40;99.90
10155;DHT22;5118;48.570;7.916;2022-12-07T02:51:11;4.40;99.90
10155;DHT22;5118;48.570;7.916;2022-12-07T02:53:41;4.40;99.90
10155;DHT22;5118;48.570;7.916;2022-12-07T02:56:26;4.30;99.90
10155;DHT22;5118;48.570;7.916;2022-12-07T02:59:05;4.30;99.90
10155;DHT22;5118;48.570;7.916;2022-12-07T03:01:46;4.20;99.90
10155;DHT22;5118;48.570;7.916;2022-12-07T03:04:29;4.10;99.90
10155;DHT22;5118;48.570;7.916;2022-12-07T03:07:06;3.90;99.90
10155;DHT22;5118;48.570;7.916;2022-12-07T03:09:42;3.70;99.90
10155;DHT22;5118;48.570;7.916;2022-12-07T03:12:17;3.50;99.90
10155;DHT22;5118;48.570;7.916;2022-12-07T03:14:52;3.30;99.90
10155;DHT22;5118;48.570;7.916;2022-12-07T03:17:27;3.10;99.90
10155;DHT22;5118;48.570;7.916;2022-12-07T03:20:02;3.00;99.90
10155;DHT22;5118;48.570;7.916;2022-12-07T03:22:34;2.80;99.90
10155;DHT22;5118;48.570;7.916;2022-12-07T03:25:06;2.70;99.90
10155;DHT22;5118;48.570;7.916;2022-12-07T03:27:39;2.50;99.90
10155;DHT22;5118;48.570;7.916;2022-12-07T03:30:12;2.40;99.90
10155;DHT22;5118;48.570;7.916;2022-12-07T03:32:45;2.30;99.90
10155;DHT22;5118;48.570;7.916;2022-12-07T03:35:19;2.20;99.90
10155;DHT22;5118;48.570;7.916;2022-12-07T03:37:53;2.10;99.90
10155;DHT22;5118;48.570;7.916;2022-12-07T03:40:26;2.00;99.90
10155;DHT22;5118;48.570;7.916;2022-12-07T03:42:59;2.00;99.90
10155;DHT22;5118;48.570;7.916;2022-12-07T03:45:35;2.10;99.90
10155;DHT22;5118;48.570;7.916;2022-12-07T03:48:10;2.20;99.90
10155;DHT22;5118;48.570;7.916;2022-12-07T03:50:45;2.30;99.90
10155;DHT22;5118;48.570;7.916;2022-12-07T03:53:19;2.40;99.90
10155;DHT22;5118;48.570;7.916;2022-12-07T03:55:50;2.50;99.90
10155;DHT22;5118;48.570;7.916;2022-12-07T03:58:20;2.60;99.90
10155;DHT22;5118;48.570;7.916;2022-12-07T04:00:50;2.70;99.90
10155;DHT22;5118;48.570;7.916;2022-12-07T04:03:20;2.80;99.90
10155;DHT22;5118;48.570;7.916;2022-12-07T04:05:49;2.80;99.90
10155;DHT22;5118;48.570;7.916;2022-12-07T04:08:17;2.90;99.90
10155;DHT22;5118;48.570;7.916;2022-12-07T04:10:46;3.00;99.90
10155;DHT22;5118;48.570;7.916;2022-12-07T04:13:14;3.10;99.90
10155;DHT22;5118;48.570;7.916;2022-12-07T04:15:43;3.10;99.90
10155;DHT22;5118;48.570;7.916;2022-12-07T04:18:11;3.10;99.90
10155;DHT22;5118;48.570;7.916;2022-12-07T04:20:41;3.20;99.90
10155;DHT22;5118;48.570;7.916;2022-12-07T04:23:09;3.20;99.90
10155;DHT22;5118;48.570;7.916;2022-12-07T04:25:37;3.20;99.90
10155;DHT22;5118;48.570;7.916;2022-12-07T04:28:06;3.20;99.90
10155;DHT22;5118;48.570;7.916;2022-12-07T04:30:34;3.20;99.90
10155;DHT22;5118;48.570;7.916;2022-12-07T04:33:02;3.20;99.90
10155;DHT22;5118;48.570;7.916;2022-12-07T04:35:30;3.30;99.90
10155;DHT22;5118;48.570;7.916;2022-12-07T04:38:00;3.30;99.90
10155;DHT22;5118;48.570;7.916;2022-12-07T04:40:28;3.30;99.90
10155;DHT22;5118;48.570;7.916;2022-12-07T04:42:57;3.30;99.90
10155;DHT22;5118;48.570;7.916;2022-12-07T04:45:25;3.40;99.90
10155;DHT22;5118;48.570;7.916;2022-12-07T04:47:54;3.30;99.90
10155;DHT22;5118;48.570;7.916;2022-12-07T04:50:22;3.30;99.90
10155;DHT22;5118;48.570;7.916;2022-12-07T04:52:50;3.30;99.90
10155;DHT22;5118;48.570;7.916;2022-12-07T04:55:20;3.30;99.90
10155;DHT22;5118;48.570;7.916;2022-12-07T04:57:48;3.20;99.90
10155;DHT22;5118;48.570;7.916;2022-12-07T05:00:17;3.20;99.90
10155;DHT22;5118;48.570;7.916;2022-12-07T05:02:46;3.10;99.90
10155;DHT22;5118;48.570;7.916;2022-12-07T05:05:14;3.10;99.90
10155;DHT22;5118;48.570;7.916;2022-12-07T05:07:43;3.00;99.90
10155;DHT22;5118;48.570;7.916;2022-12-07T05:10:11;3.00;99.90
10155;DHT22;5118;48.570;7.916;2022-12-07T05:12:41;2.90;99.90
10155;DHT22;5118;48.570;7.916;2022-12-07T05:15:09;2.90;99.90
10155;DHT22;5118;48.570;7.916;2022-12-07T05:17:38;2.90;99.90
10155;DHT22;5118;48.570;7.916;2022-12-07T05:20:07;2.90;99.90
10155;DHT22;5118;48.570;7.916;2022-12-07T05:22:35;2.90;99.90
10155;DHT22;5118;48.570;7.916;2022-12-07T05:25:04;2.90;99.90
10155;DHT22;5118;48.570;7.916;2022-12-07T05:27:33;2.90;99.90
10155;DHT22;5118;48.570;7.916;2022-12-07T05:30:03;2.80;99.90
10155;DHT22;5118;48.570;7.916;2022-12-07T05:32:31;2.80;99.90
10155;DHT22;5118;48.570;7.916;2022-12-07T05:35:00;2.80;99.90
10155;DHT22;5118;48.570;7.916;2022-12-07T05:37:28;2.80;99.90
10155;DHT22;5118;48.570;7.916;2022-12-07T05:39:56;2.80;99.90
10155;DHT22;5118;48.570;7.916;2022-12-07T05:42:25;2.80;99.90
10155;DHT22;5118;48.570;7.916;2022-12-07T05:44:53;2.80;99.90
10155;DHT22;5118;48.570;7.916;2022-12-07T05:47:23;2.80;99.90
10155;DHT22;5118;48.570;7.916;2022-12-07T05:49:51;2.80;99.90
10155;DHT22;5118;48.570;7.916;2022-12-07T05:52:19;2.80;99.90
10155;DHT22;5118;48.570;7.916;2022-12-07T05:54:48;2.80;99.90
10155;DHT22;5118;48.570;7.916;2022-12-07T05:57:16;2.80;99.90
10155;DHT22;5118;48.570;7.916;2022-12-07T05:59:44;2.80;99.90
10155;DHT22;5118;48.570;7.916;2022-12-07T06:02:14;2.70;99.90
10155;DHT22;5118;48.570;7.916;2022-12-07T06:04:45;2.70;99.90
10155;DHT22;5118;48.570;7.916;2022-12-07T06:07:15;2.70;99.90
10155;DHT22;5118;48.570;7.916;2022-12-07T06:09:44;2.60;99.90
10155;DHT22;5118;48.570;7.916;2022-12-07T06:12:13;2.60;99.90
10155;DHT22;5118;48.570;7.916;2022-12-07T06:14:59;2.50;99.90
10155;DHT22;5118;48.570;7.916;2022-12-07T06:17:27;2.50;99.90
10155;DHT22;5118;48.570;7.916;2022-12-07T06:19:57;2.50;99.90
10155;DHT22;5118;48.570;7.916;2022-12-07T06:22:26;2.50;99.90
10155;DHT22;5118;48.570;7.916;2022-12-07T06:24:54;2.40;99.90
10155;DHT22;5118;48.570;7.916;2022-12-07T06:27:23;2.40;99.90
10155;DHT22;5118;48.570;7.916;2022-12-07T06:29:51;2.50;99.90
10155;DHT22;5118;48.570;7.916;2022-12-07T06:32:20;2.50;99.90
10155;DHT22;5118;48.570;7.916;2022-12-07T06:34:48;2.50;99.90
10155;DHT22;5118;48.570;7.916;2022-12-07T06:37:18;2.50;99.90
10155;DHT22;5118;48.570;7.916;2022-12-07T06:39:47;2.50;99.90
10155;DHT22;5118;48.570;7.916;2022-12-07T06:42:15;2.50;99.90
10155;DHT22;5118;48.570;7.916;2022-12-07T06:44:44;2.60;99.90
10155;DHT22;5118;48.570;7.916;2022-12-07T06:47:12;2.60;99.90
10155;DHT22;5118;48.570;7.916;2022-12-07T06:50:00;2.60;99.90
10155;DHT22;5118;48.570;7.916;2022-12-07T06:52:32;2.60;99.90
10155;DHT22;5118;48.570;7.916;2022-12-07T06:55:00;2.70;99.90
10155;DHT22;5118;48.570;7.916;2022-12-07T06:57:28;2.70;99.90
10155;DHT22;5118;48.570;7.916;2022-12-07T06:59:57;2.80;99.90
10155;DHT22;5118;48.570;7.916;2022-12-07T07:02:26;2.80;99.90
10155;DHT22;5118;48.570;7.916;2022-12-07T07:04:54;2.80;99.90
10155;DHT22;5118;48.570;7.916;2022-12-07T07:07:22;2.80;99.90
10155;DHT22;5118;48.570;7.916;2022-12-07T07:09:52;2.80;99.90
10155;DHT22;5118;48.570;7.916;2022-12-07T07:12:21;2.90;99.90
10155;DHT22;5118;48.570;7.916;2022-12-07T07:14:49;2.90;99.90
10155;DHT22;5118;48.570;7.916;2022-12-07T07:17:17;2.90;99.90
10155;DHT22;5118;48.570;7.916;2022-12-07T07:19:46;2.90;99.90
10155;DHT22;5118;48.570;7.916;2022-12-07T07:22:16;3.00;99.90
10155;DHT22;5118;48.570;7.916;2022-12-07T07:24:45;3.00;99.90
10155;DHT22;5118;48.570;7.916;2022-12-07T07:27:15;2.90;99.90
10155;DHT22;5118;48.570;7.916;2022-12-07T07:29:45;3.00;99.90
10155;DHT22;5118;48.570;7.916;2022-12-07T07:32:14;3.00;99.90
10155;DHT22;5118;48.570;7.916;2022-12-07T07:34:42;3.00;99.90
10155;DHT22;5118;48.570;7.916;2022-12-07T07:37:10;3.10;99.90
10155;DHT22;5118;48.570;7.916;2022-12-07T07:39:47;3.10;99.90
10155;DHT22;5118;48.570;7.916;2022-12-07T07:42:17;3.10;99.90
10155;DHT22;5118;48.570;7.916;2022-12-07T07:44:46;3.10;99.90
10155;DHT22;5118;48.570;7.916;2022-12-07T07:47:14;3.10;99.90
10155;DHT22;5118;48.570;7.916;2022-12-07T07:49:42;3.20;99.90
10155;DHT22;5118;48.570;7.916;2022-12-07T07:52:14;3.20;99.90
10155;DHT22;5118;48.570;7.916;2022-12-07T07:54:42;3.30;99.90
10155;DHT22;5118;48.570;7.916;2022-12-07T07:57:11;3.30;99.90
10155;DHT22;5118;48.570;7.916;2022-12-07T07:59:40;3.30;99.90
10155;DHT22;5118;48.570;7.916;2022-12-07T08:02:10;3.40;99.90
10155;DHT22;5118;48.570;7.916;2022-12-07T08:04:41;3.40;99.90
10155;DHT22;5118;48.570;7.916;2022-12-07T08:07:10;3.40;99.90
10155;DHT22;5118;48.570;7.916;2022-12-07T08:09:38;3.40;99.90
10155;DHT22;5118;48.570;7.916;2022-12-07T08:12:07;3.40;99.90
10155;DHT22;5118;48.570;7.916;2022-12-07T08:14:35;3.40;99.90
10155;DHT22;5118;48.570;7.916;2022-12-07T08:17:05;3.50;99.90
10155;DHT22;5118;48.570;7.916;2022-12-07T08:19:35;3.50;99.90
10155;DHT22;5118;48.570;7.916;2022-12-07T08:22:03;3.60;99.90
10155;DHT22;5118;48.570;7.916;2022-12-07T08:24:33;3.60;99.90
10155;DHT22;5118;48.570;7.916;2022-12-07T08:27:02;3.60;99.90
10155;DHT22;5118;48.570;7.916;2022-12-07T08:29:31;3.60;99.90
10155;DHT22;5118;48.570;7.916;2022-12-07T08:31:59;3.60;99.90
10155;DHT22;5118;48.570;7.916;2022-12-07T08:34:36;3.70;99.90
10155;DHT22;5118;48.570;7.916;2022-12-07T08:37:05;3.70;99.90
10155;DHT22;5118;48.570;7.916;2022-12-07T08:39:33;3.80;99.90
10155;DHT22;5118;48.570;7.916;2022-12-07T08:42:02;3.90;99.90
10155;DHT22;5118;48.570;7.916;2022-12-07T08:44:30;3.90;99.90
10155;DHT22;5118;48.570;7.916;2022-12-07T08:47:02;4.00;99.90
10155;DHT22;5118;48.570;7.916;2022-12-07T08:49:34;4.10;99.90
10155;DHT22;5118;48.570;7.916;2022-12-07T08:52:06;4.10;99.90
10155;DHT22;5118;48.570;7.916;2022-12-07T08:54:35;4.20;99.90
10155;DHT22;5118;48.570;7.916;2022-12-07T08:57:05;4.30;99.90
10155;DHT22;5118;48.570;7.916;2022-12-07T08:59:37;4.40;99.90
10155;DHT22;5118;48.570;7.916;2022-12-07T09:02:20;4.40;99.90
10155;DHT22;5118;48.570;7.916;2022-12-07T09:04:50;4.50;99.90
10155;DHT22;5118;48.570;7.916;2022-12-07T09:07:19;4.60;99.90
10155;DHT22;5118;48.570;7.916;2022-12-07T09:09:48;4.70;99.90
10155;DHT22;5118;48.570;7.916;2022-12-07T09:12:17;4.70;99.90
10155;DHT22;5118;48.570;7.916;2022-12-07T09:14:45;4.80;99.90
10155;DHT22;5118;48.570;7.916;2022-12-07T09:17:13;4.80;99.90
10155;DHT22;5118;48.570;7.916;2022-12-07T09:19:42;4.80;99.90
10155;DHT22;5118;48.570;7.916;2022-12-07T09:22:11;4.90;99.90
10155;DHT22;5118;48.570;7.916;2022-12-07T09:24:41;4.90;99.90
10155;DHT22;5118;48.570;7.916;2022-12-07T09:27:10;5.00;99.90
10155;DHT22;5118;48.570;7.916;2022-12-07T09:29:38;5.00;99.90
10155;DHT22;5118;48.570;7.916;2022-12-07T09:32:07;5.00;99.90
10155;DHT22;5118;48.570;7.916;2022-12-07T09:34:38;5.00;99.90
10155;DHT22;5118;48.570;7.916;2022-12-07T09:37:07;5.00;99.90
10155;DHT22;5118;48.570;7.916;2022-12-07T09:39:40;5.00;99.90
10155;DHT22;5118;48.570;7.916;2022-12-07T09:42:27;5.00;99.90
10155;DHT22;5118;48.570;7.916;2022-12-07T09:44:58;5.10;99.90
10155;DHT22;5118;48.570;7.916;2022-12-07T09:47:27;5.10;99.90
10155;DHT22;5118;48.570;7.916;2022-12-07T09:50:03;5.20;99.90
10155;DHT22;5118;48.570;7.916;2022-12-07T09:52:32;5.20;99.90
10155;DHT22;5118;48.570;7.916;2022-12-07T09:55:11;5.10;99.90
10155;DHT22;5118;48.570;7.916;2022-12-07T09:57:40;5.20;99.90
10155;DHT22;5118;48.570;7.916;2022-12-07T10:00:13;5.20;99.90
10155;DHT22;5118;48.570;7.916;2022-12-07T10:02:43;5.20;99.90
10155;DHT22;5118;48.570;7.916;2022-12-07T10:05:16;5.30;99.90
10155;DHT22;5118;48.570;7.916;2022-12-07T10:07:51;5.30;99.90
10155;DHT22;5118;48.570;7.916;2022-12-07T10:10:24;5.20;99.90
10155;DHT22;5118;48.570;7.916;2022-12-07T10:12:59;5.20;99.90
10155;DHT22;5118;48.570;7.916;2022-12-07T10:15:47;5.20;99.90
10155;DHT22;5118;48.570;7.916;2022-12-07T10:18:21;5.20;99.90
10155;DHT22;5118;48.570;7.916;2022-12-07T10:21:02;5.20;99.90
10155;DHT22;5118;48.570;7.916;2022-12-07T10:23:31;5.30;99.90
10155;DHT22;5118;48.570;7.916;2022-12-07T10:26:20;5.30;99.90
10155;DHT22;5118;48.570;7.916;2022-12-07T10:28:49;5.40;99.90
10155;DHT22;5118;48.570;7.916;2022-12-07T10:31:20;5.50;99.90
10155;DHT22;5118;48.570;7.916;2022-12-07T10:33:51;5.60;99.90
10155;DHT22;5118;48.570;7.916;2022-12-07T10:36:24;5.70;99.90
10155;DHT22;5118;48.570;7.916;2022-12-07T10:38:59;5.80;99.90
10155;DHT22;5118;48.570;7.916;2022-12-07T10:41:29;5.90;99.90
10155;DHT22;5118;48.570;7.916;2022-12-07T10:43:58;6.00;99.90
10155;DHT22;5118;48.570;7.916;2022-12-07T10:46:53;6.10;99.90
10155;DHT22;5118;48.570;7.916;2022-12-07T10:49:55;6.30;99.90
10155;DHT22;5118;48.570;7.916;2022-12-07T10:52:42;6.60;99.90
10155;DHT22;5118;48.570;7.916;2022-12-07T10:55:21;7.00;99.90
10155;DHT22;5118;48.570;7.916;2022-12-07T10:58:07;7.30;99.90
10155;DHT22;5118;48.570;7.916;2022-12-07T11:00:44;7.40;99.90
10155;DHT22;5118;48.570;7.916;2022-12-07T11:03:36;7.50;99.90
10155;DHT22;5118;48.570;7.916;2022-12-07T11:06:18;7.60;99.90
10155;DHT22;5118;48.570;7.916;2022-12-07T11:09:00;7.60;99.90
10155;DHT22;5118;48.570;7.916;2022-12-07T11:11:34;7.60;99.90
10155;DHT22;5118;48.570;7.916;2022-12-07T11:14:15;7.50;99.90
10155;DHT22;5118;48.570;7.916;2022-12-07T11:16:55;7.40;99.90
10155;DHT22;5118;48.570;7.916;2022-12-07T11:19:34;7.30;99.90
10155;DHT22;5118;48.570;7.916;2022-12-07T11:22:14;7.20;99.90
10155;DHT22;5118;48.570;7.916;2022-12-07T11:24:53;7.10;99.90
10155;DHT22;5118;48.570;7.916;2022-12-07T11:27:34;7.10;99.90
10155;DHT22;5118;48.570;7.916;2022-12-07T11:30:16;7.10;99.90
10155;DHT22;5118;48.570;7.916;2022-12-07T11:33:06;7.00;99.90
10155;DHT22;5118;48.570;7.916;2022-12-07T11:35:46;7.00;99.90
10155;DHT22;5118;48.570;7.916;2022-12-07T11:38:23;7.00;99.90
10155;DHT22;5118;48.570;7.916;2022-12-07T11:41:01;7.10;99.90
10155;DHT22;5118;48.570;7.916;2022-12-07T11:43:52;7.20;99.90
10155;DHT22;5118;48.570;7.916;2022-12-07T11:46:25;7.20;99.90
10155;DHT22;5118;48.570;7.916;2022-12-07T11:48:58;7.20;99.90
10155;DHT22;5118;48.570;7.916;2022-12-07T11:51:34;7.10;99.90
10155;DHT22;5118;48.570;7.916;2022-12-07T11:54:14;7.10;99.90
10155;DHT22;5118;48.570;7.916;2022-12-07T11:56:47;7.20;99.90
10155;DHT22;5118;48.570;7.916;2022-12-07T11:59:22;7.20;99.90
10155;DHT22;5118;48.570;7.916;2022-12-07T12:01:57;7.30;99.90
10155;DHT22;5118;48.570;7.916;2022-12-07T12:04:39;7.30;99.90
10155;DHT22;5118;48.570;7.916;2022-12-07T12:07:11;7.50;99.90
10155;DHT22;5118;48.570;7.916;2022-12-07T12:10:04;7.60;99.90
10155;DHT22;5118;48.570;7.916;2022-12-07T12:16:09;7.80;99.90
10155;DHT22;5118;48.570;7.916;2022-12-07T12:18:53;7.80;99.90
10155;DHT22;5118;48.570;7.916;2022-12-07T12:21:28;7.90;99.90
10155;DHT22;5118;48.570;7.916;2022-12-07T12:24:00;7.90;99.90
10155;DHT22;5118;48.570;7.916;2022-12-07T12:26:32;7.90;99.90
10155;DHT22;5118;48.570;7.916;2022-12-07T12:29:04;8.00;99.90
10155;DHT22;5118;48.570;7.916;2022-12-07T12:31:35;8.00;99.90
10155;DHT22;5118;48.570;7.916;2022-12-07T12:34:31;7.90;99.90
10155;DHT22;5118;48.570;7.916;2022-12-07T12:36:59;7.90;99.90
10155;DHT22;5118;48.570;7.916;2022-12-07T12:39:28;8.00;99.90
10155;DHT22;5118;48.570;7.916;2022-12-07T12:42:00;8.00;99.90
10155;DHT22;5118;48.570;7.916;2022-12-07T12:45:19;8.10;99.90
10155;DHT22;5118;48.570;7.916;2022-12-07T12:47:58;8.10;99.90
10155;DHT22;5118;48.570;7.916;2022-12-07T12:50:33;8.10;99.90
10155;DHT22;5118;48.570;7.916;2022-12-07T12:53:19;8.10;99.90
10155;DHT22;5118;48.570;7.916;2022-12-07T12:56:13;8.10;99.90
10155;DHT22;5118;48.570;7.916;2022-12-07T12:58:46;8.00;99.90
10155;DHT22;5118;48.570;7.916;2022-12-07T13:01:48;7.90;99.90
10155;DHT22;5118;48.570;7.916;2022-12-07T13:04:34;7.80;99.90
10155;DHT22;5118;48.570;7.916;2022-12-07T13:07:11;7.70;99.90
10155;DHT22;5118;48.570;7.916;2022-12-07T13:09:44;7.60;99.90
10155;DHT22;5118;48.570;7.916;2022-12-07T13:12:14;7.50;99.90
10155;DHT22;5118;48.570;7.916;2022-12-07T13:15:19;7.40;99.90
10155;DHT22;5118;48.570;7.916;2022-12-07T13:18:01;7.30;99.90
10155;DHT22;5118;48.570;7.916;2022-12-07T13:20:44;7.20;99.90
10155;DHT22;5118;48.570;7.916;2022-12-07T13:23:18;7.10;99.90
10155;DHT22;5118;48.570;7.916;2022-12-07T13:26:05;7.10;99.90
10155;DHT22;5118;48.570;7.916;2022-12-07T13:28:45;7.00;99.90
10155;DHT22;5118;48.570;7.916;2022-12-07T13:31:21;7.00;99.90
10155;DHT22;5118;48.570;7.916;2022-12-07T13:33:52;6.90;99.90
10155;DHT22;5118;48.570;7.916;2022-12-07T13:36:22;6.80;99.90
10155;DHT22;5118;48.570;7.916;2022-12-07T13:38:56;6.80;99.90
10155;DHT22;5118;48.570;7.916;2022-12-07T13:41:25;6.80;99.90
10155;DHT22;5118;48.570;7.916;2022-12-07T13:44:00;6.70;99.90
10155;DHT22;5118;48.570;7.916;2022-12-07T13:46:41;6.70;99.90
10155;DHT22;5118;48.570;7.916;2022-12-07T13:49:18;6.70;99.90
10155;DHT22;5118;48.570;7.916;2022-12-07T13:51:47;6.60;99.90
10155;DHT22;5118;48.570;7.916;2022-12-07T13:54:19;6.60;99.90
10155;DHT22;5118;48.570;7.916;2022-12-07T13:56:49;6.60;99.90
10155;DHT22;5118;48.570;7.916;2022-12-07T13:59:20;6.50;99.90
10155;DHT22;5118;48.570;7.916;2022-12-07T14:01:51;6.50;99.90
10155;DHT22;5118;48.570;7.916;2022-12-07T14:04:33;6.40;99.90
10155;DHT22;5118;48.570;7.916;2022-12-07T14:07:20;6.40;99.90
10155;DHT22;5118;48.570;7.916;2022-12-07T14:09:58;6.30;99.90
10155;DHT22;5118;48.570;7.916;2022-12-07T14:12:29;6.20;99.90
10155;DHT22;5118;48.570;7.916;2022-12-07T14:14:59;6.20;99.90
10155;DHT22;5118;48.570;7.916;2022-12-07T14:17:30;6.10;99.90
10155;DHT22;5118;48.570;7.916;2022-12-07T14:20:00;6.10;99.90
10155;DHT22;5118;48.570;7.916;2022-12-07T14:22:32;6.10;99.90
10155;DHT22;5118;48.570;7.916;2022-12-07T14:25:19;6.10;99.90
10155;DHT22;5118;48.570;7.916;2022-12-07T14:27:59;6.10;99.90
10155;DHT22;5118;48.570;7.916;2022-12-07T14:30:29;6.10;99.90
10155;DHT22;5118;48.570;7.916;2022-12-07T14:33:00;6.10;99.90
10155;DHT22;5118;48.570;7.916;2022-12-07T14:35:30;6.10;99.90
10155;DHT22;5118;48.570;7.916;2022-12-07T14:37:59;6.10;99.90
10155;DHT22;5118;48.570;7.916;2022-12-07T14:40:32;6.10;99.90
10155;DHT22;5118;48.570;7.916;2022-12-07T14:43:02;6.10;99.90
10155;DHT22;5118;48.570;7.916;2022-12-07T14:45:31;6.00;99.90
10155;DHT22;5118;48.570;7.916;2022-12-07T14:48:00;6.00;99.90
10155;DHT22;5118;48.570;7.916;2022-12-07T14:50:52;6.00;99.90
10155;DHT22;5118;48.570;7.916;2022-12-07T14:53:44;6.00;99.90
10155;DHT22;5118;48.570;7.916;2022-12-07T14:56:23;6.00;99.90
10155;DHT22;5118;48.570;7.916;2022-12-07T14:58:52;6.00;99.90
10155;DHT22;5118;48.570;7.916;2022-12-07T15:01:21;6.00;99.90
10155;DHT22;5118;48.570;7.916;2022-12-07T15:03:49;5.90;99.90
10155;DHT22;5118;48.570;7.916;2022-12-07T15:06:18;5.90;99.90
10155;DHT22;5118;48.570;7.916;2022-12-07T15:08:47;5.90;99.90
10155;DHT22;5118;48.570;7.916;2022-12-07T15:11:16;5.90;99.90
10155;DHT22;5118;48.570;7.916;2022-12-07T15:13:49;5.90;99.90
10155;DHT22;5118;48.570;7.916;2022-12-07T15:16:37;5.80;99.90
10155;DHT22;5118;48.570;7.916;2022-12-07T15:19:26;5.80;99.90
10155;DHT22;5118;48.570;7.916;2022-12-07T15:21:56;5.80;99.90
10155;DHT22;5118;48.570;7.916;2022-12-07T15:24:25;5.70;99.90
10155;DHT22;5118;48.570;7.916;2022-12-07T15:26:54;5.70;99.90
10155;DHT22;5118;48.570;7.916;2022-12-07T15:29:25;5.70;99.90
10155;DHT22;5118;48.570;7.916;2022-12-07T15:31:55;5.70;99.90
10155;DHT22;5118;48.570;7.916;2022-12-07T15:34:25;5.60;99.90
10155;DHT22;5118;48.570;7.916;2022-12-07T15:37:03;5.60;99.90
10155;DHT22;5118;48.570;7.916;2022-12-07T15:39:32;5.50;99.90
10155;DHT22;5118;48.570;7.916;2022-12-07T15:42:01;5.50;99.90
10155;DHT22;5118;48.570;7.916;2022-12-07T15:44:31;5.50;99.90
10155;DHT22;5118;48.570;7.916;2022-12-07T15:47:16;5.50;99.90
10155;DHT22;5118;48.570;7.916;2022-12-07T15:49:45;5.40;99.90
10155;DHT22;5118;48.570;7.916;2022-12-07T15:52:14;5.40;99.90
10155;DHT22;5118;48.570;7.916;2022-12-07T15:54:42;5.40;99.90
10155;DHT22;5118;48.570;7.916;2022-12-07T15:57:11;5.40;99.90
10155;DHT22;5118;48.570;7.916;2022-12-07T15:59:41;5.40;99.90
10155;DHT22;5118;48.570;7.916;2022-12-07T16:02:09;5.40;99.90
10155;DHT22;5118;48.570;7.916;2022-12-07T16:04:38;5.40;99.90
10155;DHT22;5118;48.570;7.916;2022-12-07T16:07:07;5.40;99.90
10155;DHT22;5118;48.570;7.916;2022-12-07T16:09:35;5.40;99.90
10155;DHT22;5118;48.570;7.916;2022-12-07T16:12:04;5.40;99.90
10155;DHT22;5118;48.570;7.916;2022-12-07T16:14:32;5.40;99.90
10155;DHT22;5118;48.570;7.916;2022-12-07T16:17:02;5.40;99.90
10155;DHT22;5118;48.570;7.916;2022-12-07T16:19:31;5.40;99.90
10155;DHT22;5118;48.570;7.916;2022-12-07T16:22:00;5.40;99.90
10155;DHT22;5118;48.570;7.916;2022-12-07T16:24:28;5.40;99.90
10155;DHT22;5118;48.570;7.916;2022-12-07T16:26:57;5.40;99.90
10155;DHT22;5118;48.570;7.916;2022-12-07T16:29:25;5.40;99.90
10155;DHT22;5118;48.570;7.916;2022-12-07T16:31:54;5.30;99.90
10155;DHT22;5118;48.570;7.916;2022-12-07T16:34:24;5.30;99.90
10155;DHT22;5118;48.570;7.916;2022-12-07T16:36:52;5.30;99.90
10155;DHT22;5118;48.570;7.916;2022-12-07T16:39:30;5.30;99.90
10155;DHT22;5118;48.570;7.916;2022-12-07T16:41:59;5.30;99.90
10155;DHT22;5118;48.570;7.916;2022-12-07T16:44:27;5.30;99.90